createdAt,value
2019-03-30T00:00:02.097Z,25.40
2019-03-30T00:02:30.387Z,25.63
2019-03-30T00:04:58.688Z,25.43
2019-03-30T00:07:26.980Z,25.30
2019-03-30T00:09:55.323Z,24.23
2019-03-30T00:12:23.592Z,23.20
2019-03-30T00:14:51.891Z,25.57
2019-03-30T00:17:20.232Z,22.90
2019-03-30T00:19:48.609Z,24.13
2019-03-30T00:22:16.888Z,26.27
2019-03-30T00:24:45.195Z,25.83
2019-03-30T00:27:13.438Z,25.67
2019-03-30T00:29:42.063Z,22.80
2019-03-30T00:32:10.410Z,23.77
2019-03-30T00:34:38.655Z,24.87
2019-03-30T00:37:07.015Z,22.63
2019-03-30T00:39:35.287Z,24.53
2019-03-30T00:42:03.618Z,24.67
2019-03-30T00:44:31.881Z,24.07
2019-03-30T00:47:00.250Z,24.93
2019-03-30T00:49:28.525Z,26.67
2019-03-30T00:51:56.782Z,23.50
2019-03-30T00:54:25.113Z,23.83
2019-03-30T00:56:53.437Z,24.10
2019-03-30T00:59:21.721Z,23.73
2019-03-30T01:01:50.049Z,23.80
2019-03-30T01:04:18.290Z,24.53
2019-03-30T01:06:46.667Z,24.30
2019-03-30T01:09:14.973Z,24.70
2019-03-30T01:11:43.223Z,23.23
2019-03-30T01:14:11.511Z,23.90
2019-03-30T01:16:39.884Z,24.43
2019-03-30T01:19:10.501Z,23.67
2019-03-30T01:21:38.748Z,23.07
2019-03-30T01:24:07.074Z,23.77
2019-03-30T01:26:35.382Z,22.80
2019-03-30T01:29:03.680Z,22.97
2019-03-30T01:31:31.962Z,23.17
2019-03-30T01:34:00.234Z,23.20
2019-03-30T01:36:28.499Z,22.87
2019-03-30T01:38:59.731Z,24.47
2019-03-30T01:41:28.014Z,23.57
2019-03-30T01:43:56.430Z,24.50
2019-03-30T01:46:25.683Z,24.53
2019-03-30T01:48:53.923Z,23.10
2019-03-30T01:51:22.176Z,21.83
2019-03-30T01:53:50.447Z,21.40
2019-03-30T01:56:18.727Z,22.40
2019-03-30T01:58:47.205Z,23.57
2019-03-30T02:01:15.462Z,22.23
2019-03-30T02:03:43.775Z,21.83
2019-03-30T02:06:12.041Z,24.57
2019-03-30T02:08:40.355Z,23.60
2019-03-30T02:11:08.735Z,23.63
2019-03-30T02:13:36.996Z,23.63
2019-03-30T02:16:05.278Z,23.77
2019-03-30T02:18:33.600Z,25.13
2019-03-30T02:21:01.895Z,25.03
2019-03-30T02:23:30.268Z,25.27
2019-03-30T02:25:58.570Z,26.27
2019-03-30T02:28:26.844Z,25.97
2019-03-30T02:30:58.251Z,26.57
2019-03-30T02:33:26.650Z,25.37
2019-03-30T02:35:55.084Z,24.73
2019-03-30T02:38:23.355Z,23.97
2019-03-30T02:40:51.659Z,24.93
2019-03-30T02:43:20.004Z,23.93
2019-03-30T02:45:48.279Z,24.67
2019-03-30T02:48:16.579Z,23.57
2019-03-30T02:50:50.653Z,22.67
2019-03-30T02:53:18.168Z,23.30
2019-03-30T02:55:46.579Z,24.13
2019-03-30T02:58:14.875Z,25.73
2019-03-30T03:00:43.263Z,22.10
2019-03-30T03:03:11.515Z,21.87
2019-03-30T03:05:39.789Z,23.30
2019-03-30T03:08:08.046Z,23.80
2019-03-30T03:10:36.430Z,22.30
2019-03-30T03:13:04.836Z,22.13
2019-03-30T03:15:33.208Z,21.33
2019-03-30T03:18:01.680Z,21.17
2019-03-30T03:20:29.967Z,21.43
2019-03-30T03:22:58.290Z,21.63
2019-03-30T03:25:26.569Z,22.73
2019-03-30T03:27:54.945Z,22.97
2019-03-30T03:30:23.280Z,22.60
2019-03-30T03:32:51.552Z,23.73
2019-03-30T03:35:19.828Z,23.63
2019-03-30T03:37:48.079Z,24.20
2019-03-30T03:40:18.079Z,22.97
2019-03-30T03:42:46.393Z,22.33
2019-03-30T03:45:14.697Z,22.13
2019-03-30T03:47:42.971Z,23.07
2019-03-30T03:50:14.545Z,22.23
2019-03-30T03:52:42.853Z,22.77
2019-03-30T03:55:11.128Z,22.80
2019-03-30T03:57:40.895Z,22.60
2019-03-30T04:00:09.280Z,22.07
2019-03-30T04:02:37.586Z,20.80
2019-03-30T04:05:07.659Z,20.03
2019-03-30T04:07:35.915Z,24.17
2019-03-30T04:10:05.080Z,24.30
2019-03-30T04:12:33.353Z,23.97
2019-03-30T04:15:01.637Z,21.40
2019-03-30T04:17:29.901Z,20.03
2019-03-30T04:19:58.212Z,17.17
2019-03-30T04:22:26.475Z,19.33
2019-03-30T04:24:56.118Z,22.83
2019-03-30T04:27:24.387Z,22.93
2019-03-30T04:29:52.613Z,21.00
2019-03-30T04:32:20.873Z,20.13
2019-03-30T04:34:52.015Z,22.03
2019-03-30T04:37:20.207Z,24.47
2019-03-30T04:39:48.470Z,25.93
2019-03-30T04:42:16.722Z,25.43
2019-03-30T04:47:48.952Z,23.53
2019-03-30T04:50:17.207Z,21.47
2019-03-30T04:52:50.790Z,21.17
2019-03-30T04:55:19.128Z,20.07
2019-03-30T04:57:49.758Z,20.33
2019-03-30T05:00:17.368Z,20.43
2019-03-30T05:02:48.477Z,21.40
2019-03-30T05:05:16.749Z,20.97
2019-03-30T05:07:45.190Z,21.50
2019-03-30T05:10:13.525Z,21.60
2019-03-30T05:12:41.880Z,21.60
2019-03-30T05:15:10.317Z,21.53
2019-03-30T05:17:47.455Z,23.17
2019-03-30T05:20:08.611Z,20.87
2019-03-30T05:22:36.876Z,23.00
2019-03-30T05:25:05.576Z,23.20
2019-03-30T05:27:33.943Z,23.73
2019-03-30T05:30:02.247Z,21.57
2019-03-30T05:32:30.559Z,22.10
2019-03-30T05:34:58.854Z,23.40
2019-03-30T05:37:34.658Z,25.77
2019-03-30T05:40:03.165Z,26.30
2019-03-30T05:42:31.486Z,26.63
2019-03-30T05:45:31.711Z,27.13
2019-03-30T05:48:02.715Z,27.87
2019-03-30T05:50:40.889Z,26.90
2019-03-30T05:53:18.828Z,27.97
2019-03-30T05:56:07.727Z,28.90
2019-03-30T06:01:36.013Z,27.83
2019-03-30T06:04:04.577Z,27.50
2019-03-30T06:06:34.742Z,27.23
2019-03-30T06:09:08.087Z,29.33
2019-03-30T06:11:49.743Z,28.80
2019-03-30T06:14:28.707Z,29.10
2019-03-30T06:17:07.364Z,29.20
2019-03-30T06:19:35.857Z,28.30
2019-03-30T06:22:04.382Z,29.93
2019-03-30T06:24:33.326Z,30.80
2019-03-30T06:27:04.010Z,31.77
2019-03-30T06:29:32.152Z,31.77
2019-03-30T06:32:02.323Z,29.03
2019-03-30T06:34:30.606Z,28.67
2019-03-30T06:36:58.942Z,29.70
2019-03-30T06:39:27.368Z,27.50
2019-03-30T06:41:55.869Z,29.43
2019-03-30T06:44:24.304Z,30.87
2019-03-30T06:46:52.675Z,28.87
2019-03-30T06:49:23.272Z,29.40
2019-03-30T06:51:51.688Z,29.67
2019-03-30T06:54:20.099Z,28.57
2019-03-30T06:56:48.532Z,29.40
2019-03-30T06:59:16.918Z,29.67
2019-03-30T07:01:46.883Z,29.87
2019-03-30T07:04:15.322Z,30.07
2019-03-30T07:06:43.795Z,29.27
2019-03-30T07:09:12.189Z,30.93
2019-03-30T07:11:42.157Z,31.20
2019-03-30T07:14:10.504Z,28.53
2019-03-30T07:16:39.423Z,29.23
2019-03-30T07:19:07.725Z,29.10
2019-03-30T07:21:36.013Z,27.13
2019-03-30T07:24:04.274Z,30.60
2019-03-30T07:26:32.624Z,26.93
2019-03-30T07:29:00.969Z,28.03
2019-03-30T07:31:29.272Z,30.03
2019-03-30T07:33:59.190Z,25.90
2019-03-30T07:36:27.465Z,27.43
2019-03-30T07:38:55.774Z,23.60
2019-03-30T07:41:24.050Z,24.70
2019-03-30T07:43:52.309Z,26.33
2019-03-30T07:46:20.603Z,23.70
2019-03-30T07:48:48.980Z,23.33
2019-03-30T07:51:17.392Z,23.73
2019-03-30T07:53:45.643Z,24.60
2019-03-30T07:56:14.004Z,26.50
2019-03-30T07:58:42.321Z,26.00
2019-03-30T08:01:10.608Z,25.57
2019-03-30T08:03:38.944Z,25.17
2019-03-30T08:06:07.300Z,24.83
2019-03-30T08:08:35.617Z,26.73
2019-03-30T08:11:03.880Z,24.83
2019-03-30T08:13:32.651Z,24.87
2019-03-30T08:16:00.930Z,25.03
2019-03-30T08:18:29.215Z,25.63
2019-03-30T08:20:57.558Z,24.43
2019-03-30T08:23:39.565Z,26.40
2019-03-30T08:25:55.831Z,25.57
2019-03-30T08:28:24.104Z,26.07
2019-03-30T08:30:52.347Z,24.57
2019-03-30T08:33:20.612Z,25.50
2019-03-30T08:35:48.871Z,26.30
2019-03-30T08:38:17.128Z,26.47
2019-03-30T08:40:45.389Z,26.17
2019-03-30T08:43:13.668Z,27.00
2019-03-30T08:45:41.933Z,27.20
2019-03-30T08:48:10.215Z,25.50
2019-03-30T08:50:38.470Z,26.03
2019-03-30T08:53:06.731Z,26.67
2019-03-30T08:55:35.011Z,25.83
2019-03-30T08:58:03.256Z,26.27
2019-03-30T09:00:38.737Z,27.50
2019-03-30T09:03:07.010Z,27.27
2019-03-30T09:05:35.384Z,28.23
2019-03-30T09:08:03.684Z,25.73
2019-03-30T09:10:31.937Z,28.23
2019-03-30T09:13:00.198Z,27.97
2019-03-30T09:15:28.450Z,27.70
2019-03-30T09:17:56.701Z,27.03
2019-03-30T09:20:24.964Z,27.40
2019-03-30T09:22:53.226Z,26.13
2019-03-30T09:25:21.508Z,26.47
2019-03-30T09:27:49.794Z,26.03
2019-03-30T09:30:18.413Z,26.80
2019-03-30T09:32:46.691Z,25.43
2019-03-30T09:35:14.930Z,25.90
2019-03-30T09:37:43.215Z,26.33
2019-03-30T09:40:11.544Z,24.67
2019-03-30T09:42:40.105Z,25.07
2019-03-30T09:45:08.454Z,24.70
2019-03-30T09:47:36.749Z,26.27
2019-03-30T09:50:06.964Z,25.07
2019-03-30T09:52:35.211Z,25.53
2019-03-30T09:55:03.706Z,25.73
2019-03-30T09:57:31.952Z,24.57
2019-03-30T10:00:00.387Z,23.23
2019-03-30T10:02:28.659Z,25.80
2019-03-30T10:04:56.924Z,23.13
2019-03-30T10:07:25.190Z,22.77
2019-03-30T10:09:53.463Z,22.63
2019-03-30T10:12:21.724Z,24.47
2019-03-30T10:14:49.989Z,23.70
2019-03-30T10:17:18.246Z,24.80
2019-03-30T10:19:53.057Z,24.77
2019-03-30T10:22:16.523Z,24.83
2019-03-30T10:24:44.792Z,24.93
2019-03-30T10:27:13.080Z,24.10
2019-03-30T10:29:41.338Z,23.33
2019-03-30T10:32:09.603Z,24.37
2019-03-30T10:34:39.594Z,24.57
2019-03-30T10:37:07.905Z,24.40
2019-03-30T10:39:36.171Z,23.37
2019-03-30T10:42:04.419Z,25.00
2019-03-30T10:44:32.794Z,22.33
2019-03-30T10:47:01.057Z,22.33
2019-03-30T10:49:29.300Z,23.47
2019-03-30T10:51:57.567Z,23.10
2019-03-30T10:54:25.820Z,22.23
2019-03-30T10:56:54.109Z,21.03
2019-03-30T10:59:23.369Z,21.03
2019-03-30T11:01:51.659Z,19.97
2019-03-30T11:04:19.924Z,21.77
2019-03-30T11:06:48.187Z,20.23
2019-03-30T11:09:16.447Z,23.13
2019-03-30T11:11:44.804Z,22.60
2019-03-30T11:14:13.044Z,21.33
2019-03-30T11:16:41.310Z,22.57
2019-03-30T11:19:09.567Z,21.23
2019-03-30T11:21:37.905Z,21.30
2019-03-30T11:24:06.883Z,20.10
2019-03-30T11:26:35.394Z,19.57
2019-03-30T11:29:03.657Z,26.03
2019-03-30T11:31:31.915Z,21.90
2019-03-30T11:34:00.198Z,20.97
2019-03-30T11:36:28.459Z,21.23
2019-03-30T11:38:56.786Z,18.87
2019-03-30T11:41:25.200Z,19.53
2019-03-30T11:43:53.514Z,18.93
2019-03-30T11:46:21.830Z,19.97
2019-03-30T11:48:50.094Z,20.87
2019-03-30T11:51:18.467Z,19.53
2019-03-30T11:53:46.754Z,18.23
2019-03-30T11:56:15.019Z,18.37
2019-03-30T11:58:43.305Z,17.57
2019-03-30T12:01:15.549Z,17.07
2019-03-30T12:03:45.514Z,16.23
2019-03-30T12:06:13.778Z,16.87
2019-03-30T12:08:42.131Z,17.43
2019-03-30T12:11:10.400Z,18.83
2019-03-30T12:13:38.678Z,18.10
2019-03-30T12:16:06.983Z,18.27
2019-03-30T12:18:35.318Z,18.73
2019-03-30T12:21:04.877Z,19.93
2019-03-30T12:23:33.202Z,19.70
2019-03-30T12:26:01.458Z,17.90
2019-03-30T12:28:29.745Z,16.90
2019-03-30T12:30:58.107Z,17.23
2019-03-30T12:33:26.415Z,18.50
2019-03-30T12:35:57.673Z,16.40
2019-03-30T12:38:28.452Z,17.80
2019-03-30T12:40:56.738Z,16.97
2019-03-30T12:43:25.007Z,17.27
2019-03-30T12:45:53.260Z,16.70
2019-03-30T12:48:21.556Z,15.60
2019-03-30T12:50:49.808Z,16.00
2019-03-30T12:53:18.079Z,15.47
2019-03-30T12:55:49.367Z,14.23
2019-03-30T12:58:16.349Z,17.00
2019-03-30T13:00:44.616Z,11.97
2019-03-30T13:03:12.867Z,12.10
2019-03-30T13:05:41.125Z,12.27
2019-03-30T13:08:09.405Z,11.57
2019-03-30T13:10:37.691Z,10.30
2019-03-30T13:13:06.002Z,12.30
